< < Back
Terminal Aerodrome Forecast


Current Version              Previous Versions:   1  2  3  4  5  6  7  8  9  

Terminal Aerodrome Forecast

488
FTUS44 KMRX 211720
TAFTYS
TAF
KTYS 211720Z 2118/2218 02006KT P6SM OVC040
     FM212000 03004KT P6SM SCT040
     FM220300 03003KT P6SM -DZ OVC035
     FM221200 04005KT P6SM OVC040=



Latest METAR

962
SAUS80 KWBC 221200 CCA
MTRTYS
METAR KTYS 221153Z 00000KT 10SM OVC035 06/03 A3003 RMK AO2 SLP170
T00610033 10067 20061 53001


USA.gov is the U.S. government's official web portal to all federal, state and local government web resources and services.